Tiempo atmosférico en la estación meteorológica de Alcalá La Real, Jaén (915 m.)



Fecha
DESCASC
Temp. máxima en grados centígrados (hora)
DESCASC
Temp. mínima en grados centígrados (hora)
DESCASC
Temp. media en grados centígrados
DESCASC
Racha de viento máxima en m/sg (hora)
DESCASC
Velocidad máxima media en intervalos de 10 minutos(hora)
DESCASC
Precipitaciones diarias en mm
DESCASC
Precipitaciones de 00:00 a 06:00 en mm
DESCASC
Precipitaciones de 06:00 a 12:00 en mm
DESCASC
Precipitaciones de 12:00 a 18:00 en mm
DESCASC
Precipitaciones de 18:00 a 24:00 en mm
DESCASC
23-05-2018 22.3 (16:50) 12.4 (07:40) 17.3 5 (13:10) 2.5 (04:40) 0.4 0 0 0.4 0
22-05-2018 22.3 (17:00) 8.8 (05:10) 15.5 6.11 (14:40) 3.61 (18:40) 0.2 0 0.2 0 0
21-05-2018 17.1 (13:20) 10.2 (07:10) 13.7 7.78 (13:20) 4.17 (14:20) 7.2 0 0 7.2 0
20-05-2018 18.8 (13:30) 9.4 (00:00) 14.1 7.22 (15:00) 3.61 (14:00) 8.2 0 0 7.6 0.6
19-05-2018 17.7 (13:10) 9.4 (00:00) 13.6 11.11 (13:40) 4.44 (16:30) 15.6 0 0 15.6 0
18-05-2018 19.5 (14:40) 9.9 (00:00) 14.7 7.22 (14:40) 4.17 (14:30) 6 0 0 0.8 5.2
17-05-2018 22.7 (14:50) 9.4 (00:00) 16.1 13.89 (02:00) 6.67 (02:30) 0.8 0 0 0 0.8
16-05-2018 25 (16:40) 10.1 (00:00) 17.6 11.67 (23:50) 5.83 (23:10) 0 0 0 0 0
15-05-2018 22.7 (17:30) 9.2 (00:00) 16 7.22 (14:40) 4.17 (15:30) 0 0 0 0 0
14-05-2018 20.5 (16:00) 6.4 (00:00) 13.5 8.33 (14:40) 4.17 (18:00) 0 0 0 0 0
13-05-2018 17.9 (16:40) 4.8 (00:00) 11.3 7.22 (17:40) 4.17 (17:40) 0 0 0 0 0
12-05-2018 17.1 (13:50) 9.5 (00:00) 13.3 9.17 (21:00) 5 (21:10) 0 0 0 0 0
11-05-2018 22.6 (17:50) 10.2 (03:50) 16.4 6.67 (19:20) 4.17 (19:20) 0 0 0 0 0
10-05-2018 18.5 (18:40) 11.5 (00:00) 15 5.56 (16:10) 3.61 (16:10) 0 0 0 0 0
09-05-2018 19.7 (15:20) 10.6 (00:00) 15.2 8.89 (16:50) 5.28 (16:50) 1 1 0 0 0
08-05-2018 21.2 (16:10) 9.8 (00:00) 15.5 6.94 (13:40) 3.89 (15:50) 14 3.6 0.2 9.6 0.6
07-05-2018 21.4 (18:00) 8.6 (00:00) 15 7.5 (19:00) 4.72 (19:00) 0.4 0 0 0.4 0
06-05-2018 20.8 (14:00) 10.6 (00:00) 15.7 8.06 (16:50) 3.89 (16:10) 17.8 0 0.2 16 1.6
05-05-2018 19.9 (17:10) 6.8 (00:00) 13.3 8.06 (20:20) 3.61 (20:20) 3.2 0 0 2.6 0.6
04-05-2018 18.5 (14:30) 7.8 (00:00) 13.2 6.67 (14:00) 3.61 (14:00) 2.8 0 0 2.8 0
03-05-2018 19 (17:30) 4.7 (00:00) 11.8 9.44 (20:40) 5.56 (19:50) 0 0 0 0 0
02-05-2018 15.3 (17:30) 2.2 (00:00) 8.8 7.5 (16:10) 3.89 (16:10) 0.2 0 0.2 0 0
01-05-2018 9.5 (12:00) 1.5 (15:10) 5.5 6.94 (13:10) 3.89 (14:30) 10.2 0 0 10.2 0
30-04-2018 12.3 (16:20) 4.9 (00:00) 8.6 7.22 (16:20) 3.89 (16:00) 0 0 0 0 0
29-04-2018 12.7 (17:40) 4.4 (00:00) 8.5 10.28 (15:20) 6.11 (17:30) 2 1.8 0 0.2 0
28-04-2018 18.1 (14:10) 7.6 (00:00) 12.9 9.17 (13:50) 4.72 (14:40) 0 0 0 0 0
27-04-2018 20.7 (15:00) 12.5 (00:00) 16.6 9.72 (17:20) 5 (17:40) 0 0 0 0 0
26-04-2018 23.3 (14:20) 11.2 (00:00) 17.2 8.61 (14:10) 4.44 (14:10) 6.4 0 0 0 6.4
25-04-2018 21 (16:10) 11.9 (00:00) 16.4 5.83 (15:30) 3.33 (16:10) 0 0 0 0 0
24-04-2018 26.6 (16:40) 14.8 (00:00) 20.7 15.83 (02:20) 7.22 (01:50) 0 0 0 0 0

Gráficas

Temp. máximas Temp. mínimas Temp. medias Precipitaciones Rachas de viento máximas Velocidades máximas media en intervalos de 10 minutos

Datos horarios

Fecha y hora oficial Temperatura (ºC) Velocidad del viento (km/h) Dirección del viento Racha (km/h) Dirección de racha Precipitación (mm) Presión (hPa) Tendencia (hPa) Humedad (%)
2018-05-23 23:00:00 16.3 0 Calma 7 Este 0 -- -- 65
2018-05-23 22:00:00 17.7 0 Calma 9 Este 0 -- -- 66
2018-05-23 21:00:00 19.2 2 Este 8 Sudoeste 0 -- -- 64
2018-05-23 20:00:00 21.1 2 Sudoeste 8 Noroeste 0 -- -- 59
2018-05-23 19:00:00 21.5 6 Noroeste 12 Norte 0 -- -- 59
2018-05-23 18:00:00 21.9 6 Este 14 Sudeste 0 -- -- 48
2018-05-23 17:00:00 22.2 8 Sudeste 18 Sudeste 0 -- -- 52
2018-05-23 16:00:00 21.4 5 Sur 17 Sur 0 -- -- 57
2018-05-23 15:00:00 20.8 5 Sur 14 Este 0 -- -- 55
2018-05-23 14:00:00 17.3 5 Este 18 Sudeste 0.4 -- -- 74
2018-05-23 13:00:00 20.3 6 Sudeste 17 Este 0 -- -- 56
2018-05-23 12:00:00 20.5 6 Sur 13 Sur 0 -- -- 55
2018-05-23 11:00:00 18.9 5 Sudeste 17 Sudeste 0 -- -- 68
2018-05-23 10:00:00 16.2 8 Sudeste 16 Sudeste 0 -- -- 73
2018-05-23 09:00:00 13.8 5 Sudeste 11 Sudeste 0 -- -- 83
2018-05-23 08:00:00 12.7 5 Sudeste 11 Sudeste 0 -- -- 87
2018-05-23 07:00:00 12.8 5 Sudeste 12 Sudeste 0 -- -- 86
2018-05-23 06:00:00 12.7 4 Sudeste 13 Sudeste 0 -- -- 88
2018-05-23 05:00:00 13.4 7 Sudeste 14 Este 0 -- -- 85
2018-05-23 04:00:00 12.7 2 Sudeste 8 Sudeste 0 -- -- 89
2018-05-23 03:00:00 13.6 6 Sudeste 9 Sudeste 0 -- -- 84
2018-05-23 02:00:00 13.7 4 Sudeste 8 Sudeste 0 -- -- 85
2018-05-23 01:00:00 14.3 5 Sudeste 9 Sudeste 0 -- -- 79
2018-05-23 00:00:00 14.5 0 Calma 4 Noroeste 0 -- -- 82
2018-05-22 23:00:00 15.4 3 Nordeste 7 Norte 0 -- -- 76
2018-05-22 22:00:00 16.5 2 Norte 7 Oeste 0 -- -- 77
2018-05-22 21:00:00 18.2 4 Noroeste 16 Oeste 0 -- -- 68
2018-05-22 20:00:00 20.5 10 Noroeste 19 Oeste 0 -- -- 62
2018-05-22 19:00:00 21.1 10 Noroeste 19 Noroeste 0 -- -- 57
2018-05-22 18:00:00 21.8 8 Norte 22 Oeste 0 -- -- 55
2018-05-22 17:00:00 22.3 6 Noroeste 18 Noroeste 0 -- -- 55
2018-05-22 16:00:00 21.2 8 Oeste 17 Oeste 0 -- -- 55
2018-05-22 15:00:00 20.7 7 Noroeste 22 Noroeste 0 -- -- 56
2018-05-22 14:00:00 19.6 7 Oeste 18 Noroeste 0 -- -- 62
2018-05-22 13:00:00 18.9 5 Noroeste 14 Noroeste 0 -- -- 62
2018-05-22 12:00:00 17.5 3 Sudoeste 10 Oeste 0 -- -- 71
2018-05-22 11:00:00 15.6 3 Sudeste 8 Sur 0 -- -- 73
2018-05-22 10:00:00 12.5 3 Sur 7 Sur 0 -- -- 85
2018-05-22 09:00:00 10.2 0 Calma 8 Sudeste 0.2 -- -- 96
2018-05-22 08:00:00 9.3 5 Sudeste 9 Sudeste 0 -- -- 97
2018-05-22 07:00:00 8.8 4 Sudeste 7 Sudeste 0 -- -- 97
2018-05-22 06:00:00 8.8 0 Calma 5 Sudeste 0 -- -- 97
2018-05-22 05:00:00 8.9 0 Calma 2 Este 0 -- -- 97
2018-05-22 04:00:00 9.4 0 Calma 4 Sudeste 0 -- -- 97
2018-05-22 03:00:00 9.5 3 Sudeste 5 Sudeste 0 -- -- 96
2018-05-22 02:00:00 10.1 0 Calma 10 Sudeste 0 -- -- 93
2018-05-22 01:00:00 10.6 5 Sudeste 7 Sudeste 0 -- -- 94
2018-05-22 00:00:00 10.8 3 Este 5 Sudeste 0 -- -- 95
2018-05-21 23:00:00 11.6 3 Este 6 Este 0 -- -- 93
2018-05-21 22:00:00 12.4 0 Calma 5 Sudoeste 0 -- -- 89
2018-05-21 21:00:00 13.2 3 Sudeste 9 Sur 0 -- -- 85
2018-05-21 20:00:00 13.9 4 Sudeste 13 Sudeste 0 -- -- 78
2018-05-21 19:00:00 13.8 5 Sudeste 12 Sudeste 0 -- -- 84
2018-05-21 18:00:00 13.1 5 Sudeste 11 Sudeste 0.6 -- -- 85
2018-05-21 17:00:00 12.3 4 Sudoeste 24 Sur 6.6 -- -- 91
2018-05-21 16:00:00 16.8 8 Sudoeste 15 Sudoeste 0 -- -- 64
2018-05-21 15:00:00 16.8 7 Sudoeste 24 Oeste 0 -- -- 68
2018-05-21 14:00:00 16.7 13 Noroeste 28 Noroeste 0 -- -- 62
2018-05-21 13:00:00 16.3 13 Noroeste 18 Noroeste 0 -- -- 66
2018-05-21 12:00:00 16.2 8 Noroeste 16 Oeste 0 -- -- 71
2018-05-21 11:00:00 15.5 4 Sur 10 Sudeste 0 -- -- 69
2018-05-21 10:00:00 13.6 4 Sudeste 8 Sudeste 0 -- -- 78
2018-05-21 09:00:00 11.7 3 Sudeste 8 Sudeste 0 -- -- 92
2018-05-21 08:00:00 10.2 0 Calma 8 Sudeste 0 -- -- 93
2018-05-21 07:00:00 10.3 6 Sudeste 10 Sudeste 0 -- -- 92
2018-05-21 06:00:00 10.6 6 Sudeste 10 Sudeste 0 -- -- 90
2018-05-21 05:00:00 10.7 6 Sudeste 11 Sudeste 0 -- -- 92
2018-05-21 04:00:00 10.7 0 Calma 7 Sudeste 0 -- -- 93
2018-05-21 03:00:00 10.9 6 Sudeste 10 Sudeste 0 -- -- 91
2018-05-21 02:00:00 11 6 Sudeste 12 Sudeste 0 -- -- 91
2018-05-21 01:00:00 10.9 4 Sudoeste 10 Sudeste 0 -- -- 93
2018-05-21 00:00:00 11.1 4 Sudeste 8 Este 0 -- -- 92
2018-05-20 23:00:00 11 3 Sudeste 9 Sudeste 0 -- -- 93
2018-05-20 22:00:00 11.5 2 Sur 15 Sudeste 0 -- -- 93
2018-05-20 21:00:00 12 2 Sudeste 5 Sudeste 0.2 -- -- 92
2018-05-20 20:00:00 12.2 3 Sudeste 14 Sudeste 0.4 -- -- 90
2018-05-20 19:00:00 12.6 4 Este 11 Este 0 -- -- 87
2018-05-20 18:00:00 12.7 5 Este 13 Sudeste 0 -- -- 89
2018-05-20 17:00:00 12.5 5 Sudeste 14 Sudeste 1.6 -- -- 92
2018-05-20 16:00:00 11.9 3 Nordeste 19 Sudeste 6 -- -- 90
2018-05-20 15:00:00 16.4 10 Este 26 Este 0 -- -- 57
2018-05-20 14:00:00 18.7 13 Noroeste 23 Noroeste 0 -- -- 67
2018-05-20 13:00:00 18.1 6 Noroeste 17 Noroeste 0 -- -- 60
2018-05-20 12:00:00 16.5 6 Noroeste 13 Oeste 0 -- -- 66
2018-05-20 11:00:00 15.8 5 Sudoeste 10 Sudoeste 0 -- -- 69
2018-05-20 10:00:00 13.7 0 Calma 5 Oeste 0 -- -- 77
2018-05-20 09:00:00 11.6 0 Calma 4 Este 0 -- -- 90
2018-05-20 08:00:00 9.7 0 Calma 8 Este 0 -- -- 96
2018-05-20 07:00:00 9.5 4 Sudeste 8 Sudeste 0 -- -- 95
2018-05-20 06:00:00 10.2 6 Este 8 Sudeste 0 -- -- 93
2018-05-20 05:00:00 10.8 5 Sudeste 6 Sudeste 0 -- -- 91
2018-05-20 04:00:00 10.8 5 Sudeste 11 Sudeste 0 -- -- 92
2018-05-20 03:00:00 10.6 6 Sudeste 11 Sudeste 0 -- -- 92
2018-05-20 02:00:00 10.6 5 Sudeste 9 Sudeste 0 -- -- 93
2018-05-20 01:00:00 11 0 Calma 6 Sudeste 0 -- -- 92
2018-05-20 00:00:00 11.7 3 Sudeste 6 Sudeste 0 -- -- 92
2018-05-19 23:00:00 11.8 0 Calma 6 Este 0 -- -- 90
2018-05-19 22:00:00 12.3 0 Calma 6 Este 0 -- -- 90
2018-05-19 21:00:00 12.8 4 Este 7 Sudoeste 0 -- -- 86
2018-05-19 20:00:00 14 4 Noroeste 16 Oeste 0 -- -- 81
2018-05-19 19:00:00 13.8 4 Norte 10 Nordeste 0 -- -- 84
2018-05-19 18:00:00 12.4 3 Noroeste 15 Norte 0.2 -- -- 89
2018-05-19 17:00:00 12.7 4 Sudeste 29 Este 5.2 -- -- 85
2018-05-19 16:00:00 16.7 7 Sudoeste 15 Sudoeste 0 -- -- 71
2018-05-19 15:00:00 15.4 6 Sudeste 11 Este 0 -- -- 80
2018-05-19 14:00:00 12.8 2 Sur 40 Sudeste 10.2 -- -- 81
2018-05-19 13:00:00 17.5 7 Noroeste 12 Noroeste 0 -- -- 70
2018-05-19 12:00:00 17.1 5 Noroeste 10 Norte 0 -- -- 69
2018-05-19 11:00:00 15.5 3 Norte 11 Noroeste 0 -- -- 72
2018-05-19 10:00:00 13.2 4 Noroeste 9 Noroeste 0 -- -- 82
2018-05-19 09:00:00 11 0 Calma 6 Sudeste 0 -- -- 93
2018-05-19 08:00:00 9.7 4 Sudeste 7 Este 0 -- -- 94
2018-05-19 07:00:00 9.6 0 Calma 6 Sudeste 0 -- -- 93
2018-05-19 06:00:00 10.4 0 Calma 9 Este 0 -- -- 90
2018-05-19 05:00:00 11 3 Sudeste 8 Este 0 -- -- 90
2018-05-19 04:00:00 11.5 2 Este 6 Sur 0 -- -- 92
2018-05-19 03:00:00 11.8 0 Calma 11 Sudeste 0 -- -- 91
2018-05-19 02:00:00 12 4 Sudeste 9 Este 0 -- -- 90
2018-05-19 01:00:00 11.9 0 Calma 7 Sur 0 -- -- 91
2018-05-19 00:00:00 12 2 Este 10 Sudeste 0 -- -- 92
2018-05-18 23:00:00 11.9 3 Sudeste 14 Sudeste 0 -- -- 91
2018-05-18 22:00:00 11.8 3 Este 8 Sudeste 0.4 -- -- 92
2018-05-18 21:00:00 12.1 4 Noroeste 19 Nordeste 1.6 -- -- 87
2018-05-18 20:00:00 12.2 7 Nordeste 20 Este 1.8 -- -- 84
2018-05-18 19:00:00 13.8 5 Este 22 Este 1.4 -- -- 87
2018-05-18 18:00:00 15.7 6 Sudoeste 21 Norte 0 -- -- 69
2018-05-18 17:00:00 15.4 6 Norte 21 Noroeste 0.8 -- -- 81
2018-05-18 16:00:00 17.4 12 Norte 25 Noroeste 0 -- -- 60
2018-05-18 15:00:00 19 11 Norte 26 Norte 0 -- -- 60
2018-05-18 14:00:00 18.3 13 Noroeste 21 Oeste 0 -- -- 59
2018-05-18 13:00:00 18.9 11 Noroeste 22 Oeste 0 -- -- 57
2018-05-18 12:00:00 18 7 Noroeste 13 Noroeste 0 -- -- 55
2018-05-18 11:00:00 15.2 4 Oeste 10 Sudeste 0 -- -- 69
2018-05-18 10:00:00 12.2 5 Sudeste 14 Sudeste 0 -- -- 79
2018-05-18 09:00:00 11.2 8 Sudeste 14 Sudeste 0 -- -- 82
2018-05-18 08:00:00 10.2 3 Sudeste 6 Sudeste 0 -- -- 88
2018-05-18 07:00:00 10.2 2 Sudeste 10 Sudeste 0 -- -- 91
2018-05-18 06:00:00 10.8 5 Sudeste 11 Sudeste 0 -- -- 90
2018-05-18 05:00:00 11 4 Sur 9 Sudeste 0 -- -- 90
2018-05-18 04:00:00 11.5 5 Sudeste 10 Sudeste 0 -- -- 89
2018-05-18 03:00:00 12.6 4 Este 7 Sudeste 0 -- -- 87
2018-05-18 02:00:00 12.8 2 Sudeste 13 Sudeste 0 -- -- 88
2018-05-18 01:00:00 13.3 3 Sur 15 Sudeste 0 -- -- 85
2018-05-18 00:00:00 13.4 6 Sudeste 18 Sudeste 0 -- -- 85
2018-05-17 23:00:00 13.6 6 Sudeste 13 Sudeste 0.2 -- -- 86
2018-05-17 22:00:00 14.4 5 Sudeste 21 Sudeste 0.6 -- -- 85
2018-05-17 21:00:00 16.1 7 Sudeste 20 Sudeste 0 -- -- 68
2018-05-17 20:00:00 18.6 8 Sudeste 22 Sudeste 0 -- -- 57
2018-05-17 19:00:00 20.7 8 Este 15 Sudeste 0 -- -- 40
2018-05-17 18:00:00 21.3 4 Norte 12 Noroeste 0 -- -- 38
2018-05-17 17:00:00 22.2 5 Oeste 13 Sudeste 0 -- -- 35
2018-05-17 16:00:00 22.3 7 Norte 22 Este 0 -- -- 35
2018-05-17 15:00:00 22.5 7 Sur 24 Sudeste 0 -- -- 36
2018-05-17 14:00:00 21.3 9 Sudeste 24 Sudeste 0 -- -- 38
2018-05-17 13:00:00 20.3 9 Sudeste 22 Sudeste 0 -- -- 41
2018-05-17 12:00:00 19.1 11 Sudeste 24 Este 0 -- -- 42
2018-05-17 11:00:00 17.8 11 Sudeste 27 Sudeste 0 -- -- 44
2018-05-17 10:00:00 14.9 3 Nordeste 15 Este 0 -- -- 50
2018-05-17 09:00:00 11.5 0 Calma 6 Este 0 -- -- 59
2018-05-17 08:00:00 10.1 3 Sudoeste 10 Sudoeste 0 -- -- 61
2018-05-17 07:00:00 10 3 Sur 12 Noroeste 0 -- -- 64
2018-05-17 06:00:00 11.3 2 Sudoeste 12 Sudeste 0 -- -- 55
2018-05-17 05:00:00 13 5 Norte 42 Nordeste 0 -- -- 48
2018-05-17 04:00:00 13.2 19 Este 44 Este 0 -- -- 47
2018-05-17 03:00:00 14.3 19 Este 48 Este 0 -- -- 44
2018-05-17 02:00:00 15.2 21 Este 50 Este 0 -- -- 41
2018-05-17 01:00:00 15.7 20 Este 44 Nordeste 0 -- -- 41
2018-05-17 00:00:00 16.2 20 Este 42 Este 0 -- -- 41
2018-05-16 23:00:00 16.9 19 Este 38 Nordeste 0 -- -- 43
2018-05-16 22:00:00 18.1 13 Este 32 Nordeste 0 -- -- 41
2018-05-16 21:00:00 20.3 13 Este 28 Este 0 -- -- 37
2018-05-16 20:00:00 23.9 9 Este 22 Nordeste 0 -- -- 32
2018-05-16 19:00:00 24.3 10 Este 28 Este 0 -- -- 30
2018-05-16 18:00:00 24.7 10 Este 28 Sudeste 0 -- -- 31
2018-05-16 17:00:00 24.9 10 Nordeste 32 Este 0 -- -- 30
2018-05-16 16:00:00 24.6 8 Este 27 Este 0 -- -- 29
2018-05-16 15:00:00 23.9 11 Este 25 Sudeste 0 -- -- 31
2018-05-16 14:00:00 23.2 9 Este 23 Este 0 -- -- 31
2018-05-16 13:00:00 22.2 10 Sudeste 26 Este 0 -- -- 33
2018-05-16 12:00:00 21.1 10 Este 25 Este 0 -- -- 39
2018-05-16 11:00:00 18.6 4 Nordeste 14 Este 0 -- -- 47
2018-05-16 10:00:00 14.6 4 Sudoeste 10 Oeste 0 -- -- 63
2018-05-16 09:00:00 11.8 0 Calma 14 Sur 0 -- -- 69
2018-05-16 08:00:00 10.3 3 Sudoeste 9 Sur 0 -- -- 73
2018-05-16 07:00:00 10.3 4 Sur 12 Sur 0 -- -- 72
2018-05-16 06:00:00 10.8 4 Sudeste 13 Sudeste 0 -- -- 68
2018-05-16 05:00:00 11 8 Sudeste 12 Sudeste 0 -- -- 66
2018-05-16 04:00:00 11.7 5 Sudeste 12 Sur 0 -- -- 61
2018-05-16 03:00:00 11.5 3 Sudeste 8 Sudeste 0 -- -- 62
2018-05-16 02:00:00 12.6 0 Calma 8 Sudeste 0 -- -- 58
2018-05-16 01:00:00 14.1 5 Sudeste 11 Este 0 -- -- 51
2018-05-16 00:00:00 14.7 6 Sudeste 10 Este 0 -- -- 49
2018-05-15 23:00:00 15 4 Sudeste 8 Sudeste 0 -- -- 47
2018-05-15 22:00:00 16.7 2 Nordeste 20 Norte 0 -- -- 44
2018-05-15 21:00:00 19.6 6 Norte 21 Noroeste 0 -- -- 35
2018-05-15 20:00:00 21.4 9 Norte 23 Noroeste 0 -- -- 35
2018-05-15 19:00:00 22 11 Noroeste 24 Noroeste 0 -- -- 35
2018-05-15 18:00:00 22.2 12 Noroeste 24 Noroeste 0 -- -- 34
2018-05-15 17:00:00 22.3 10 Norte 26 Noroeste 0 -- -- 35
2018-05-15 16:00:00 21.8 12 Oeste 26 Oeste 0 -- -- 36
2018-05-15 15:00:00 21.1 10 Oeste 26 Noroeste 0 -- -- 39
2018-05-15 14:00:00 20.7 9 Oeste 25 Oeste 0 -- -- 40
2018-05-15 13:00:00 20 9 Noroeste 20 Noroeste 0 -- -- 40
2018-05-15 12:00:00 18.3 4 Oeste 10 Sudoeste 0 -- -- 43
2018-05-15 11:00:00 16.5 3 Noroeste 10 Noroeste 0 -- -- 46
2018-05-15 10:00:00 13.7 4 Noroeste 8 Noroeste 0 -- -- 55
2018-05-15 09:00:00 11.5 5 Sudeste 8 Este 0 -- -- 60
2018-05-15 08:00:00 9.2 0 Calma 10 Sudeste 0 -- -- 69
2018-05-15 07:00:00 9.4 6 Sudeste 10 Sudeste 0 -- -- 68
2018-05-15 06:00:00 9.8 8 Sudeste 10 Sudeste 0 -- -- 66
2018-05-15 05:00:00 10 4 Sudeste 9 Sudeste 0 -- -- 65
2018-05-15 04:00:00 10.3 0 Calma 10 Sudeste 0 -- -- 65
2018-05-15 03:00:00 11.3 7 Sudeste 10 Sudeste 0 -- -- 61
2018-05-15 02:00:00 10.9 2 Nordeste 8 Este 0 -- -- 64
2018-05-15 01:00:00 12 4 Sudeste 10 Sudeste 0 -- -- 60
2018-05-15 00:00:00 12.3 0 Calma 8 Este 0 -- -- 61
2018-05-14 23:00:00 13.8 2 Sudoeste 15 Este 0 -- -- 56
2018-05-14 22:00:00 15.4 3 Nordeste 19 Norte 0 -- -- 50
2018-05-14 21:00:00 17.5 6 Norte 22 Norte 0 -- -- 44
2018-05-14 20:00:00 19.1 11 Noroeste 25 Noroeste 0 -- -- 41
2018-05-14 19:00:00 19.6 14 Noroeste 30 Noroeste 0 -- -- 40
2018-05-14 18:00:00 20 15 Noroeste 29 Noroeste 0 -- -- 40
2018-05-14 17:00:00 20.2 14 Noroeste 27 Noroeste 0 -- -- 38
2018-05-14 16:00:00 20.5 9 Noroeste 25 Noroeste 0 -- -- 38
2018-05-14 15:00:00 20 12 Noroeste 30 Oeste 0 -- -- 37
2018-05-14 14:00:00 19.1 10 Oeste 23 Oeste 0 -- -- 36
2018-05-14 13:00:00 18.3 6 Noroeste 18 Oeste 0 -- -- 38
2018-05-14 12:00:00 17 4 Sur 13 Oeste 0 -- -- 39
2018-05-14 11:00:00 15.5 3 Sur 10 Este 0 -- -- 41
2018-05-14 10:00:00 12 4 Sudeste 8 Sudeste 0 -- -- 57
2018-05-14 09:00:00 8.7 0 Calma 7 Sudeste 0 -- -- 69
2018-05-14 08:00:00 7.2 5 Sudeste 9 Sudeste 0 -- -- 67
2018-05-14 07:00:00 7.3 8 Sudeste 10 Sudeste 0 -- -- 66
2018-05-14 06:00:00 6.9 3 Sudeste 5 Sudeste 0 -- -- 69
2018-05-14 05:00:00 7 0 Calma 6 Sudeste 0 -- -- 71
2018-05-14 04:00:00 7.4 0 Calma 6 Este 0 -- -- 69
2018-05-14 03:00:00 7.7 0 Calma 2 Este 0 -- -- 68
2018-05-14 02:00:00 8.5 2 Sudeste 3 Nordeste 0 -- -- 62
2018-05-14 01:00:00 9.3 0 Calma 8 Norte 0 -- -- 59
2018-05-11 20:00:00 -- -- -- -- -- -- -- -- --
2018-05-11 19:00:00 -- -- -- -- -- -- -- -- --
2018-05-11 18:00:00 -- -- -- -- -- -- -- -- --
2018-05-11 17:00:00 22.5 6 Oeste 23 Noroeste 0 -- -- 48
2018-05-11 16:00:00 22.1 8 Oeste 17 Sur 0 -- -- 52
2018-05-11 15:00:00 21.6 12 Noroeste 20 Noroeste 0 -- -- 57
2018-05-11 14:00:00 20.5 6 Noroeste 19 Noroeste 0 -- -- 59
2018-05-11 13:00:00 19.7 6 Noroeste 16 Oeste 0 -- -- 62
2018-05-11 12:00:00 18.9 4 Sudoeste 18 Sudeste 0 -- -- 63
2018-05-11 11:00:00 17.3 7 Sudeste 17 Sudeste 0 -- -- 71
2018-05-11 10:00:00 14.7 4 Sudeste 9 Sudeste 0 -- -- 83
2018-05-11 09:00:00 12.3 3 Sudoeste 8 Sudeste 0 -- -- 96
2018-05-11 08:00:00 11 3 Sur 9 Sudeste 0 -- -- 96
2018-05-11 07:00:00 11.1 0 Calma 4 Sur 0 -- -- 96
2018-05-11 06:00:00 11 0 Calma 6 Sudoeste 0 -- -- 96
2018-05-11 05:00:00 10.8 2 Sudeste 8 Sur 0 -- -- 96
2018-05-11 04:00:00 10.3 0 Calma 4 Sudeste 0 -- -- 95
2018-05-11 03:00:00 10.6 4 Este 6 Sudeste 0 -- -- 93
2018-05-11 02:00:00 11.1 0 Calma 4 Noroeste 0 -- -- 92
2018-05-11 01:00:00 11.7 0 Calma 4 Norte 0 -- -- 91
2018-05-11 00:00:00 12.4 0 Calma 4 Nordeste 0 -- -- 91
2018-05-10 23:00:00 13.6 0 Calma 6 Norte 0 -- -- 88
2018-05-10 22:00:00 14.7 0 Calma 6 Nordeste 0 -- -- 85
2018-05-10 21:00:00 17 4 Noroeste 12 Noroeste 0 -- -- 75
2018-05-10 20:00:00 18.3 7 Norte 16 Norte 0 -- -- 72
2018-05-10 19:00:00 18.3 9 Norte 17 Noroeste 0 -- -- 73
2018-05-10 18:00:00 17.9 8 Norte 18 Noroeste 0 -- -- 77
2018-05-10 17:00:00 16.5 10 Norte 20 Noroeste 0 -- -- 82
2018-05-10 16:00:00 15.7 11 Noroeste 19 Noroeste 0 -- -- 85
2018-05-10 15:00:00 15.3 11 Noroeste 18 Norte 0 -- -- 86
2018-05-10 14:00:00 14.9 9 Noroeste 14 Noroeste 0 -- -- 87
2018-05-10 13:00:00 13.6 7 Norte 13 Norte 0 -- -- 93
2018-05-10 12:00:00 12.9 7 Noroeste 14 Noroeste 0 -- -- 95
2018-05-10 11:00:00 12.8 6 Noroeste 14 Norte 0 -- -- 96
2018-05-10 10:00:00 12 8 Noroeste 15 Noroeste 0 -- -- 98
2018-05-10 09:00:00 11.7 5 Noroeste 18 Noroeste 0 -- -- 99
2018-05-10 08:00:00 11.8 8 Norte 13 Noroeste 0 -- -- 98
2018-05-10 07:00:00 12.2 4 Noroeste 10 Norte 0 -- -- 98
2018-05-10 06:00:00 12.4 5 Norte 11 Noroeste 0 -- -- 97
2018-05-10 05:00:00 12.6 2 Norte 6 Norte 0 -- -- 96
2018-05-10 04:00:00 12.6 4 Noroeste 13 Noroeste 0 -- -- 95
2018-05-10 03:00:00 12.8 4 Noroeste 7 Noroeste 0 -- -- 94
2018-05-10 02:00:00 13.2 0 Calma 10 Norte 0 -- -- 91
2018-05-10 01:00:00 13.3 6 Noroeste 18 Noroeste 0 -- -- 92
2018-05-10 00:00:00 13.5 9 Noroeste 15 Noroeste 0 -- -- 92
2018-05-09 23:00:00 13.9 4 Oeste 11 Norte 0 -- -- 91
2018-05-09 22:00:00 14.1 7 Noroeste 15 Noroeste 0 -- -- 92
2018-05-09 21:00:00 14.9 9 Noroeste 20 Noroeste 0 -- -- 88
2018-05-09 20:00:00 16.5 12 Noroeste 20 Noroeste 0 -- -- 80
2018-05-09 19:00:00 17.3 12 Noroeste 26 Noroeste 0 -- -- 77
2018-05-09 18:00:00 18 17 Noroeste 27 Noroeste 0 -- -- 76
2018-05-09 17:00:00 19.1 17 Noroeste 32 Oeste 0 -- -- 73
2018-05-09 16:00:00 19.7 15 Noroeste 30 Oeste 0 -- -- 71
2018-05-09 15:00:00 18.8 13 Noroeste 23 Noroeste 0 -- -- 76
2018-05-09 14:00:00 17.6 11 Noroeste 18 Noroeste 0 -- -- 81
2018-05-09 13:00:00 15.7 6 Noroeste 14 Oeste 0 -- -- 88
2018-05-09 12:00:00 14.5 6 Oeste 15 Noroeste 0 -- -- 92
2018-05-09 11:00:00 13 7 Noroeste 14 Norte 0 -- -- 99
2018-05-09 10:00:00 12.3 8 Norte 14 Noroeste 0 -- -- 98
2018-05-09 09:00:00 12.3 5 Norte 10 Norte 0 -- -- 98
2018-05-09 08:00:00 11.8 3 Noroeste 12 Noroeste 0 -- -- 98
2018-05-09 07:00:00 10.6 3 Norte 10 Sudeste 0 -- -- 96
2018-05-09 06:00:00 11 0 Calma 4 Sudeste 0 -- -- 95
2018-05-09 05:00:00 11.3 0 Calma 7 Sudeste 0 -- -- 95
2018-05-09 04:00:00 12.4 5 Sudeste 8 Sudeste 0 -- -- 93
2018-05-09 03:00:00 12.4 5 Sudeste 9 Sudeste 0 -- -- 92
2018-05-09 02:00:00 13 4 Este 8 Sudeste 0 -- -- 93
2018-05-09 01:00:00 14 0 Calma 4 Norte 1 -- -- 93
2018-05-09 00:00:00 14.6 0 Calma 8 Noroeste 0.4 -- -- 91
2018-05-08 23:00:00 15.2 9 Noroeste 18 Noroeste 0 -- -- 84
2018-05-08 22:00:00 15.2 6 Noroeste 10 Noroeste 0 -- -- 82
2018-05-08 21:00:00 15.5 4 Noroeste 23 Oeste 0 -- -- 77
2018-05-08 20:00:00 17.4 12 Noroeste 24 Oeste 0 -- -- 77
2018-05-08 19:00:00 17.7 9 Noroeste 14 Oeste 0.2 -- -- 74
2018-05-08 18:00:00 16.4 4 Sudoeste 20 Sur 9.6 -- -- 80
2018-05-08 17:00:00 19.7 11 Noroeste 24 Oeste 0 -- -- 61
2018-05-08 16:00:00 21.1 12 Noroeste 24 Noroeste 0 -- -- 60
2018-05-08 15:00:00 20.5 10 Noroeste 22 Oeste 0 -- -- 63
2018-05-08 14:00:00 18.5 12 Noroeste 25 Noroeste 0 -- -- 67
2018-05-08 13:00:00 18.3 10 Noroeste 19 Oeste 0 -- -- 72
2018-05-08 12:00:00 17 10 Noroeste 17 Norte 0 -- -- 73
2018-05-08 11:00:00 15.3 4 Norte 9 Noroeste 0 -- -- 79
2018-05-08 10:00:00 13.1 4 Oeste 8 Sudeste 0 -- -- 87
2018-05-08 09:00:00 11.2 4 Sudeste 8 Sudeste 0 -- -- 94
2018-05-08 08:00:00 9.8 0 Calma 9 Sudeste 0 -- -- 94
2018-05-08 07:00:00 10.1 5 Sudeste 9 Sudeste 0.2 -- -- 94
2018-05-08 06:00:00 10.2 4 Sudeste 8 Este 0 -- -- 95
2018-05-08 05:00:00 10.3 5 Sudeste 7 Este 0 -- -- 95
2018-05-08 04:00:00 10.6 0 Calma 8 Norte 0 -- -- 93
2018-05-08 03:00:00 11.5 4 Norte 6 Noroeste 0.2 -- -- 90
2018-05-08 02:00:00 12.1 3 Sudeste 14 Norte 2.8 -- -- 89
2018-05-08 01:00:00 12.4 7 Este 11 Sudeste 0.6 -- -- 82
2018-05-08 00:00:00 13.7 0 Calma 15 Norte 0 -- -- 74
2018-05-07 23:00:00 15.5 5 Nordeste 22 Norte 0 -- -- 61
2018-05-07 22:00:00 16.7 5 Noroeste 19 Noroeste 0 -- -- 63
2018-05-07 21:00:00 17.8 6 Noroeste 20 Noroeste 0 -- -- 57
2018-05-07 20:00:00 19.7 11 Oeste 26 Noroeste 0 -- -- 54
2018-05-07 19:00:00 20.4 17 Oeste 27 Oeste 0 -- -- 53
2018-05-07 18:00:00 21.4 13 Noroeste 25 Noroeste 0 -- -- 45
2018-05-07 17:00:00 19 6 Sudeste 15 Sudeste 0 -- -- 59
2018-05-07 16:00:00 18.4 6 Sudeste 12 Sudeste 0 -- -- 62
2018-05-07 15:00:00 18.8 3 Norte 19 Noroeste 0.4 -- -- 70
2018-05-07 14:00:00 18.6 6 Oeste 15 Noroeste 0 -- -- 59
2018-05-07 13:00:00 18.6 6 Sudoeste 10 Oeste 0 -- -- 58
2018-05-07 12:00:00 18.2 3 Sur 10 Oeste 0 -- -- 57
2018-05-07 11:00:00 16.6 3 Sur 10 Sur 0 -- -- 62
2018-05-07 10:00:00 13.7 3 Oeste 9 Sudeste 0 -- -- 73
2018-05-07 09:00:00 11.9 3 Sudeste 9 Sudeste 0 -- -- 75
2018-05-07 08:00:00 9.4 3 Sudeste 8 Sudeste 0 -- -- 85
2018-05-07 07:00:00 8.9 0 Calma 8 Este 0 -- -- 86
2018-05-07 06:00:00 8.9 0 Calma 8 Este 0 -- -- 88
2018-05-07 05:00:00 9.1 2 Noroeste 8 Sudeste 0 -- -- 87
2018-05-07 04:00:00 9.6 0 Calma 6 Oeste 0 -- -- 86
2018-05-07 03:00:00 10.8 0 Calma 8 Sudoeste 0 -- -- 81
2018-05-07 02:00:00 13 3 Oeste 22 Sudeste 0 -- -- 70
2018-05-07 01:00:00 12.6 6 Sudeste 16 Sudeste 0 -- -- 74
2018-05-07 00:00:00 11.3 3 Este 7 Sudeste 0 -- -- 85
2018-05-06 23:00:00 11.7 0 Calma 7 Sudoeste 0 -- -- 88
2018-05-06 22:00:00 12.7 3 Sur 9 Este 0 -- -- 84
2018-05-06 21:00:00 13.4 4 Este 21 Este 0 -- -- 84
2018-05-06 20:00:00 13.3 8 Este 14 Este 0.4 -- -- 87
2018-05-06 19:00:00 13.5 3 Este 18 Nordeste 1.2 -- -- 86
2018-05-06 18:00:00 13.3 2 Noroeste 21 Este 5.8 -- -- 89
2018-05-06 17:00:00 13.6 9 Este 29 Este 10.2 -- -- 87
2018-05-06 16:00:00 19.6 10 Noroeste 23 Noroeste 0 -- -- 57
2018-05-06 15:00:00 20.1 10 Norte 21 Norte 0 -- -- 55
2018-05-06 14:00:00 20.8 5 Nordeste 19 Este 0 -- -- 48
2018-05-06 13:00:00 19.6 7 Este 21 Sudeste 0 -- -- 52
2018-05-06 12:00:00 17.7 10 Sudeste 21 Sudeste 0 -- -- 60
2018-05-06 11:00:00 15.9 9 Sudeste 19 Sudeste 0 -- -- 64
2018-05-06 10:00:00 13.7 2 Noroeste 6 Sudeste 0 -- -- 75
2018-05-06 09:00:00 11.4 3 Oeste 6 Sudoeste 0 -- -- 85
2018-05-06 08:00:00 10.7 0 Calma 13 Sudeste 0.2 -- -- 88
2018-05-06 07:00:00 11.2 8 Sudeste 12 Sudeste 0 -- -- 84
2018-05-06 06:00:00 11.9 3 Sur 9 Sudeste 0 -- -- 81
2018-05-06 05:00:00 13.1 5 Sudeste 17 Sudeste 0 -- -- 75
2018-05-06 04:00:00 11.5 3 Sudeste 12 Este 0 -- -- 82
2018-05-06 03:00:00 11.6 3 Sudeste 8 Sudeste 0 -- -- 80
2018-05-06 02:00:00 11.8 5 Sudeste 8 Sudeste 0 -- -- 82
2018-05-06 01:00:00 11.6 4 Sur 9 Sur 0 -- -- 86
2018-05-06 00:00:00 12.2 0 Calma 14 Sur 0 -- -- 85
2018-05-05 23:00:00 12.7 4 Sudeste 11 Sudeste 0 -- -- 85
2018-05-05 22:00:00 12.7 4 Sudeste 12 Sudeste 0 -- -- 84
2018-05-05 21:00:00 13.5 6 Este 29 Este 0.6 -- -- 79
2018-05-05 20:00:00 16.7 9 Este 23 Este 0 -- -- 64
2018-05-05 19:00:00 16.6 3 Sudeste 7 Sudeste 0 -- -- 70
2018-05-05 18:00:00 16 2 Nordeste 26 Este 2.6 -- -- 79
2018-05-05 17:00:00 19.5 5 Sudoeste 12 Oeste 0 -- -- 49
2018-05-05 16:00:00 18.3 5 Noroeste 17 Oeste 0 -- -- 52
2018-05-05 15:00:00 18.5 9 Oeste 14 Noroeste 0 -- -- 55
2018-05-05 14:00:00 19.3 3 Sudeste 11 Noroeste 0 -- -- 49
2018-05-05 13:00:00 18.4 5 Norte 12 Norte 0 -- -- 56
2018-05-05 12:00:00 17.1 3 Sudeste 8 Noroeste 0 -- -- 61
2018-05-05 11:00:00 14.9 4 Oeste 6 Noroeste 0 -- -- 66
2018-05-05 10:00:00 11.6 0 Calma 5 Sudeste 0 -- -- 79
2018-05-05 09:00:00 9.2 4 Sudeste 7 Sudeste 0 -- -- 87
2018-05-05 08:00:00 7.5 4 Sudeste 6 Sudeste 0 -- -- 92
2018-05-05 07:00:00 6.9 0 Calma 9 Sudeste 0 -- -- 91
2018-05-05 06:00:00 8.2 5 Sudeste 11 Sudeste 0 -- -- 85
2018-05-05 05:00:00 8.1 2 Sudeste 12 Sudeste 0 -- -- 87
2018-05-05 04:00:00 8.3 0 Calma 10 Sudeste 0 -- -- 88
2018-05-05 03:00:00 8.4 5 Sudeste 9 Este 0 -- -- 89
2018-05-05 02:00:00 8.6 4 Sudeste 10 Sudeste 0 -- -- 88
2018-05-05 01:00:00 9 3 Este 9 Sudeste 0 -- -- 87
2018-05-05 00:00:00 9.9 8 Sudeste 12 Sudeste 0 -- -- 82
2018-05-04 23:00:00 10.7 6 Sudeste 9 Sudeste 0 -- -- 78
2018-05-04 22:00:00 11.4 3 Sudeste 9 Sudeste 0 -- -- 77
2018-05-04 21:00:00 13.1 5 Sudeste 11 Sudeste 0 -- -- 74
2018-05-04 20:00:00 14.4 4 Sudeste 8 Sudeste 0 -- -- 67
2018-05-04 19:00:00 14.1 5 Sudeste 15 Sur 0 -- -- 65
2018-05-04 18:00:00 13.3 9 Sudeste 20 Sudeste 0.2 -- -- 77
2018-05-04 17:00:00 12.2 6 Este 24 Este 2.6 -- -- 84
2018-05-04 16:00:00 14.5 9 Este 18 Este 0 -- -- 66
2018-05-04 15:00:00 16.6 6 Sudeste 19 Noroeste 0 -- -- 54
2018-05-04 14:00:00 17.4 13 Noroeste 24 Noroeste 0 -- -- 48
2018-05-04 13:00:00 17.9 8 Noroeste 21 Noroeste 0 -- -- 51
2018-05-04 12:00:00 16 7 Noroeste 15 Noroeste 0 -- -- 56
2018-05-04 11:00:00 15 5 Oeste 11 Oeste 0 -- -- 60
2018-05-04 10:00:00 11.5 0 Calma 6 Oeste 0 -- -- 75
2018-05-04 09:00:00 9.8 3 Sudeste 5 Sudeste 0 -- -- 87
2018-05-04 08:00:00 8.1 0 Calma 2 Este 0 -- -- 93
2018-05-04 07:00:00 8.2 0 Calma 9 Norte 0 -- -- 90
2018-05-04 06:00:00 8.4 3 Norte 8 Nordeste 0 -- -- 88
2018-05-04 05:00:00 8.6 0 Calma 4 Norte 0 -- -- 87
2018-05-04 04:00:00 9.3 0 Calma 9 Este 0 -- -- 83
2018-05-04 03:00:00 10.4 3 Sudeste 9 Sudeste 0 -- -- 80
2018-05-04 02:00:00 11 2 Este 10 Sudeste 0 -- -- 79
2018-05-04 01:00:00 11.3 3 Sudeste 5 Este 0 -- -- 79
2018-05-04 00:00:00 11.4 3 Sudeste 8 Oeste 0 -- -- 77
2018-05-03 23:00:00 12.4 5 Oeste 15 Noroeste 0 -- -- 72
2018-05-03 22:00:00 12.8 9 Noroeste 22 Noroeste 0 -- -- 67
2018-05-03 21:00:00 14 12 Noroeste 34 Norte 0 -- -- 62
2018-05-03 20:00:00 16.2 14 Noroeste 31 Oeste 0 -- -- 54
2018-05-03 19:00:00 17.4 13 Noroeste 27 Noroeste 0 -- -- 48
2018-05-03 18:00:00 18.8 15 Noroeste 31 Noroeste 0 -- -- 44
2018-05-03 17:00:00 18.9 12 Noroeste 29 Norte 0 -- -- 40
2018-05-03 16:00:00 18.1 15 Noroeste 29 Noroeste 0 -- -- 45
2018-05-03 15:00:00 17.9 15 Noroeste 27 Oeste 0 -- -- 47
2018-05-03 14:00:00 16.5 12 Noroeste 26 Oeste 0 -- -- 50
2018-05-03 13:00:00 15.2 10 Noroeste 22 Oeste 0 -- -- 57
2018-05-03 12:00:00 13.5 9 Noroeste 18 Oeste 0 -- -- 58
2018-05-03 11:00:00 12.2 4 Noroeste 9 Noroeste 0 -- -- 59
2018-05-03 10:00:00 9.3 2 Oeste 5 Noroeste 0 -- -- 67
2018-05-03 09:00:00 7.1 2 Sudeste 6 Sudeste 0 -- -- 73
2018-05-03 08:00:00 5.1 3 Sudeste 8 Este 0 -- -- 81
2018-05-03 07:00:00 4.8 0 Calma 4 Sudeste 0 -- -- 85
2018-05-03 06:00:00 5.1 0 Calma 3 Sudeste 0 -- -- 85
2018-05-03 05:00:00 6 0 Calma 4 Norte 0 -- -- 82
2018-05-03 04:00:00 5.8 0 Calma 8 Noroeste 0 -- -- 82
2018-05-03 03:00:00 6.9 3 Noroeste 16 Noroeste 0 -- -- 77
2018-05-03 02:00:00 8.2 7 Noroeste 18 Noroeste 0 -- -- 69
2018-05-03 01:00:00 9.1 11 Noroeste 22 Oeste 0 -- -- 70
2018-05-03 00:00:00 8 5 Noroeste 9 Noroeste 0 -- -- 71
2018-05-02 23:00:00 8.5 2 Norte 5 Norte 0 -- -- 71
2018-05-02 22:00:00 9.8 2 Norte 14 Noroeste 0 -- -- 68
2018-05-02 21:00:00 11.5 5 Noroeste 25 Noroeste 0 -- -- 58
2018-05-02 20:00:00 14 10 Noroeste 20 Oeste 0 -- -- 46
2018-05-02 19:00:00 14.1 13 Noroeste 24 Noroeste 0 -- -- 48
2018-05-02 18:00:00 15.1 12 Noroeste 23 Oeste 0 -- -- 45
2018-05-02 17:00:00 14.4 10 Norte 27 Noroeste 0 -- -- 49
2018-05-02 16:00:00 14.9 12 Noroeste 25 Noroeste 0 -- -- 47
2018-05-02 15:00:00 14.4 13 Oeste 26 Norte 0 -- -- 49
2018-05-02 14:00:00 13.5 9 Noroeste 24 Norte 0 -- -- 49
2018-05-02 13:00:00 13.1 10 Noroeste 25 Norte 0 -- -- 56
2018-05-02 12:00:00 11.5 8 Oeste 15 Oeste 0 -- -- 58
2018-05-02 11:00:00 9.4 4 Oeste 8 Oeste 0 -- -- 72
2018-05-02 10:00:00 6.7 5 Sudeste 13 Sudeste 0 -- -- 78
2018-05-02 09:00:00 4.3 8 Sudeste 14 Sudeste 0 -- -- 91
2018-05-02 08:00:00 2.8 8 Sudeste 13 Sudeste 0 -- -- 96
2018-05-02 07:00:00 2.3 3 Sudeste 6 Sudeste 0.2 -- -- 97
2018-05-02 06:00:00 2.6 0 Calma 2 Nordeste 0 -- -- 96
2018-05-02 05:00:00 2.6 0 Calma 4 Oeste 0 -- -- 97
2018-05-02 04:00:00 2.6 0 Calma 4 Este 0 -- -- 96
2018-05-02 03:00:00 2.4 0 Calma 5 Nordeste 0 -- -- 95
2018-05-02 02:00:00 2.7 0 Calma 4 Norte 0 -- -- 95
2018-05-02 01:00:00 3 0 Calma 6 Sudeste 0 -- -- 95
2018-05-02 00:00:00 3.3 0 Calma 8 Sudeste 0 -- -- 93
2018-05-01 23:00:00 4.1 2 Norte 3 Norte 0 -- -- 92
2018-05-01 22:00:00 5 0 Calma 6 Norte 0 -- -- 88
2018-05-01 21:00:00 6.3 0 Calma 11 Noroeste 0 -- -- 84
2018-05-01 20:00:00 7.4 8 Noroeste 16 Oeste 0 -- -- 77
2018-05-01 19:00:00 8.5 4 Norte 13 Noroeste 0 -- -- 75
2018-05-01 18:00:00 7.5 8 Noroeste 17 Noroeste 0 -- -- 77
2018-05-01 17:00:00 7.4 10 Noroeste 18 Noroeste 0 -- -- 82
2018-05-01 16:00:00 4.1 6 Noroeste 13 Noroeste 2 -- -- 96
2018-05-01 15:00:00 1.6 6 Noroeste 23 Noroeste 5.4 -- -- 93
2018-05-01 14:00:00 4.9 10 Noroeste 25 Oeste 0.4 -- -- 87
2018-05-01 13:00:00 7.4 2 Sudoeste 13 Norte 2.4 -- -- 79
2018-05-01 12:00:00 9.5 3 Oeste 11 Noroeste 0 -- -- 63
2018-05-01 11:00:00 8.9 4 Oeste 9 Oeste 0 -- -- 69
2018-05-01 10:00:00 7.4 3 Sudoeste 6 Oeste 0 -- -- 81
2018-05-01 09:00:00 5.2 0 Calma 5 Sudeste 0 -- -- 95
2018-05-01 08:00:00 4.3 2 Sudeste 5 Sudeste 0 -- -- 93
2018-05-01 07:00:00 4.9 0 Calma 5 Sudeste 0 -- -- 92
2018-05-01 06:00:00 5.3 0 Calma 4 Sudeste 0 -- -- 92
2018-05-01 05:00:00 5.8 2 Sudoeste 4 Oeste 0 -- -- 88
2018-05-01 04:00:00 6.4 2 Norte 11 Noroeste 0 -- -- 86
2018-05-01 03:00:00 6.8 4 Noroeste 9 Norte 0 -- -- 83
2018-05-01 02:00:00 6.7 3 Noroeste 12 Noroeste 0 -- -- 80
2018-05-01 01:00:00 6.4 3 Noroeste 9 Noroeste 0 -- -- 79
2018-05-01 00:00:00 6.6 3 Norte 11 Noroeste 0 -- -- 76
2018-04-30 23:00:00 7.2 6 Noroeste 14 Noroeste 0 -- -- 72
2018-04-30 22:00:00 8.2 9 Noroeste 21 Noroeste 0 -- -- 63
2018-04-30 21:00:00 9.2 7 Noroeste 19 Noroeste 0 -- -- 57
2018-04-30 20:00:00 11.1 12 Oeste 23 Noroeste 0 -- -- 51
2018-04-30 19:00:00 11.8 12 Noroeste 24 Oeste 0 -- -- 52
2018-04-30 18:00:00 11.3 11 Noroeste 23 Noroeste 0 -- -- 53
2018-04-30 17:00:00 11.5 11 Noroeste 26 Oeste 0 -- -- 53
2018-04-30 16:00:00 11.7 14 Noroeste 25 Noroeste 0 -- -- 50
2018-04-30 15:00:00 10.9 10 Noroeste 22 Oeste 0 -- -- 52
2018-04-30 14:00:00 10.8 10 Noroeste 21 Noroeste 0 -- -- 54
2018-04-30 13:00:00 9.6 8 Noroeste 17 Oeste 0 -- -- 66
2018-04-30 12:00:00 9.6 8 Oeste 15 Oeste 0 -- -- 59
2018-04-30 11:00:00 8.5 3 Sur 14 Oeste 0 -- -- 59
2018-04-30 10:00:00 7.4 0 Calma 11 Sudeste 0 -- -- 70
2018-04-30 09:00:00 6.1 5 Sudeste 12 Este 0 -- -- 88
2018-04-30 08:00:00 5.4 3 Sudeste 7 Sudeste 0 -- -- 91
2018-04-30 07:00:00 5.3 2 Sudeste 6 Sudeste 0 -- -- 90
2018-04-30 06:00:00 5.2 2 Sudoeste 4 Sudoeste 0 -- -- 91
2018-04-30 05:00:00 5.6 0 Calma 3 Este 0 -- -- 91
2018-04-30 04:00:00 6.3 0 Calma 8 Oeste 0 -- -- 88
2018-04-30 03:00:00 6.9 2 Sudoeste 6 Oeste 0 -- -- 87
2018-04-30 02:00:00 6.7 0 Calma 3 Sudeste 0 -- -- 87
2018-04-30 01:00:00 6.3 0 Calma 14 Oeste 0 -- -- 89
2018-04-30 00:00:00 6.9 5 Oeste 15 Noroeste 0 -- -- 85
2018-04-29 23:00:00 7.3 6 Noroeste 19 Oeste 0 -- -- 84
2018-04-29 22:00:00 7.8 12 Oeste 26 Oeste 0 -- -- 83
2018-04-29 21:00:00 8.9 15 Oeste 31 Oeste 0 -- -- 75
2018-04-29 20:00:00 10.4 11 Oeste 31 Oeste 0 -- -- 62
2018-04-29 19:00:00 12.4 17 Oeste 33 Oeste 0 -- -- 52
2018-04-29 18:00:00 12.3 20 Oeste 35 Oeste 0 -- -- 49
2018-04-29 17:00:00 11.7 19 Oeste 34 Oeste 0 -- -- 52
2018-04-29 16:00:00 11.7 15 Oeste 37 Oeste 0 -- -- 58
2018-04-29 15:00:00 10.1 15 Oeste 33 Oeste 0 -- -- 63
2018-04-29 14:00:00 8.3 17 Oeste 32 Oeste 0.2 -- -- 70
2018-04-29 13:00:00 7.6 14 Oeste 34 Sudoeste 0 -- -- 73
2018-04-29 12:00:00 6.9 16 Oeste 34 Noroeste 0 -- -- 76
2018-04-29 11:00:00 5.9 15 Oeste 33 Noroeste 0 -- -- 80
2018-04-29 10:00:00 4.6 14 Oeste 31 Oeste 0 -- -- 85
2018-04-29 09:00:00 4.4 17 Oeste 35 Oeste 0 -- -- 87
2018-04-29 08:00:00 4.5 12 Oeste 31 Oeste 0 -- -- 89
2018-04-29 07:00:00 4.7 15 Oeste 28 Oeste 0 -- -- 89
2018-04-29 06:00:00 4.6 14 Oeste 32 Oeste 0 -- -- 89
2018-04-29 05:00:00 4.7 13 Oeste 32 Oeste 1 -- -- 92
2018-04-29 04:00:00 5.2 4 Oeste 22 Oeste 0.8 -- -- 90
2018-04-29 03:00:00 5.9 6 Oeste 28 Sudoeste 0 -- -- 87
2018-04-29 02:00:00 6.7 4 Sudoeste 16 Sur 0 -- -- 73
2018-04-29 01:00:00 7.2 4 Sudoeste 17 Noroeste 0 -- -- 73
2018-04-29 00:00:00 7.6 3 Noroeste 19 Noroeste 0 -- -- 75
2018-04-28 23:00:00 8.4 12 Oeste 28 Oeste 0 -- -- 69
2018-04-28 22:00:00 10.3 13 Oeste 24 Oeste 0 -- -- 55
2018-04-28 21:00:00 11.2 10 Oeste 20 Oeste 0 -- -- 61
2018-04-28 20:00:00 13.4 12 Oeste 25 Sudoeste 0 -- -- 54
2018-04-28 19:00:00 15.6 13 Oeste 24 Sudoeste 0 -- -- 52
2018-04-28 18:00:00 16.4 12 Oeste 26 Noroeste 0 -- -- 53
2018-04-28 17:00:00 16.5 13 Oeste 28 Oeste 0 -- -- 58
2018-04-28 16:00:00 17.2 16 Oeste 28 Oeste 0 -- -- 60
2018-04-28 15:00:00 17.6 15 Oeste 30 Noroeste 0 -- -- 56
2018-04-28 14:00:00 17.8 12 Sudoeste 33 Sudeste 0 -- -- 51
2018-04-28 13:00:00 16.9 13 Oeste 26 Oeste 0 -- -- 57
2018-04-28 12:00:00 16.1 9 Oeste 24 Sudoeste 0 -- -- 58
2018-04-28 11:00:00 15 5 Sur 17 Oeste 0 -- -- 58
2018-04-28 10:00:00 12.6 3 Sur 9 Sudeste 0 -- -- 76
2018-04-28 09:00:00 10.5 4 Sudeste 10 Sudeste 0 -- -- 87
2018-04-28 08:00:00 9.1 7 Sudeste 11 Sudeste 0 -- -- 89
2018-04-28 07:00:00 8.9 5 Sudeste 6 Sudeste 0 -- -- 88
2018-04-28 06:00:00 9.1 0 Calma 4 Nordeste 0 -- -- 88
2018-04-28 05:00:00 9.8 0 Calma 6 Nordeste 0 -- -- 85
2018-04-28 04:00:00 10.3 0 Calma 5 Este 0 -- -- 85
2018-04-28 03:00:00 11 4 Sudeste 9 Sudeste 0 -- -- 81
2018-04-28 02:00:00 11.3 4 Sudeste 7 Sudeste 0 -- -- 80
2018-04-28 01:00:00 12 0 Calma 5 Noroeste 0 -- -- 79
2018-04-28 00:00:00 12.5 2 Norte 6 Noroeste 0 -- -- 77
2018-04-27 23:00:00 13.7 2 Norte 5 Norte 0 -- -- 70
2018-04-27 22:00:00 14.8 0 Calma 5 Oeste 0 -- -- 71
2018-04-27 21:00:00 16.8 4 Noroeste 17 Noroeste 0 -- -- 67
2018-04-27 20:00:00 18.7 8 Noroeste 20 Noroeste 0 -- -- 67
2018-04-27 19:00:00 20.2 13 Noroeste 24 Noroeste 0 -- -- 63
2018-04-27 18:00:00 19.7 14 Noroeste 35 Oeste 0 -- -- 67
2018-04-27 17:00:00 19.5 16 Noroeste 27 Noroeste 0 -- -- 67
2018-04-27 16:00:00 19.7 15 Noroeste 26 Noroeste 0 -- -- 67
2018-04-27 15:00:00 20.7 10 Noroeste 22 Noroeste 0 -- -- 63
2018-04-27 14:00:00 19.8 8 Noroeste 18 Noroeste 0 -- -- 64
2018-04-27 13:00:00 19.6 9 Noroeste 18 Noroeste 0 -- -- 65
2018-04-27 12:00:00 18 5 Noroeste 15 Oeste 0 -- -- 70
2018-04-27 11:00:00 16.7 4 Norte 10 Noroeste 0 -- -- 74
2018-04-27 10:00:00 14.6 4 Noroeste 8 Norte 0 -- -- 84
2018-04-27 09:00:00 13.5 0 Calma 5 Noroeste 0 -- -- 95
2018-04-27 08:00:00 13.2 0 Calma 4 Norte 0 -- -- 96
2018-04-27 07:00:00 13 2 Norte 10 Noroeste 0 -- -- 96
2018-04-27 06:00:00 13.1 2 Noroeste 6 Noroeste 0 -- -- 96
2018-04-27 05:00:00 13.1 3 Noroeste 6 Norte 0 -- -- 94
2018-04-27 04:00:00 13.4 3 Norte 9 Noroeste 0 -- -- 94
2018-04-27 03:00:00 13.3 0 Calma 6 Sudeste 0 -- -- 94
2018-04-27 02:00:00 13.4 4 Sudeste 6 Sudeste 0 -- -- 92
2018-04-27 01:00:00 12.7 5 Sudeste 9 Sudeste 0 -- -- 95
2018-04-27 00:00:00 13.1 5 Sudeste 12 Sudeste 0 -- -- 94
2018-04-26 23:00:00 13.9 6 Sudeste 10 Sudeste 0 -- -- 93
2018-04-26 22:00:00 15.1 3 Sudeste 17 Este 0 -- -- 89
2018-04-26 21:00:00 15.7 4 Sudeste 12 Oeste 6.2 -- -- 84
2018-04-26 20:00:00 18.3 4 Sur 12 Sur 0.2 -- -- 74
2018-04-26 19:00:00 19.8 4 Sudeste 10 Sudeste 0 -- -- 61
2018-04-26 18:00:00 21.5 5 Sudoeste 17 Oeste 0 -- -- 50
2018-04-26 17:00:00 21.6 6 Oeste 16 Noroeste 0 -- -- 51
2018-04-26 16:00:00 20.2 4 Noroeste 19 Noroeste 0 -- -- 58
2018-04-26 15:00:00 19.8 16 Noroeste 31 Este 0 -- -- 62
2018-04-26 14:00:00 22.5 11 Este 27 Este 0 -- -- 47
2018-04-26 13:00:00 21 4 Oeste 28 Este 0 -- -- 50
2018-04-26 12:00:00 18.5 8 Noroeste 13 Oeste 0 -- -- 63
2018-04-26 11:00:00 17 4 Sur 11 Sudoeste 0 -- -- 69
2018-04-26 10:00:00 14 3 Sudeste 14 Noroeste 0 -- -- 86
2018-04-26 09:00:00 12.7 6 Noroeste 10 Noroeste 0 -- -- 95
2018-04-26 08:00:00 11.5 0 Calma 4 Este 0 -- -- 94
2018-04-26 07:00:00 11.3 2 Nordeste 6 Nordeste 0 -- -- 92
2018-04-26 06:00:00 11.6 4 Nordeste 9 Nordeste 0 -- -- 90
2018-04-26 05:00:00 12.5 2 Norte 7 Norte 0 -- -- 91
2018-04-26 04:00:00 13.2 2 Sudeste 10 Noroeste 0 -- -- 90
2018-04-26 03:00:00 14.2 2 Norte 8 Noroeste 0 -- -- 84
2018-04-26 02:00:00 14.9 2 Oeste 12 Sudeste 0 -- -- 76
2018-04-26 01:00:00 14.3 3 Norte 9 Noroeste 0 -- -- 73
2018-04-26 00:00:00 14.4 3 Norte 7 Norte 0 -- -- 69
2018-04-25 23:00:00 14.9 3 Norte 6 Noroeste 0 -- -- 68
2018-04-25 22:00:00 15.7 0 Calma 6 Sudeste 0 -- -- 62
2018-04-25 21:00:00 17.5 3 Sudeste 9 Sur 0 -- -- 56
2018-04-25 20:00:00 19 3 Sudeste 11 Sudeste 0 -- -- 51
2018-04-25 19:00:00 19.6 6 Oeste 14 Sudoeste 0 -- -- 53
2018-04-25 18:00:00 19.2 6 Sudoeste 15 Oeste 0 -- -- 59
2018-04-25 17:00:00 20 9 Noroeste 21 Noroeste 0 -- -- 55
2018-04-25 16:00:00 20.8 9 Noroeste 21 Oeste 0 -- -- 52
2018-04-25 15:00:00 19.6 9 Noroeste 16 Oeste 0 -- -- 59
2018-04-25 14:00:00 18 4 Oeste 10 Oeste 0 -- -- 61
2018-04-25 13:00:00 16.3 3 Noroeste 9 Norte 0 -- -- 68
2018-04-25 12:00:00 16.2 2 Norte 17 Nordeste 0 -- -- 69
2018-04-25 11:00:00 15 7 Sudeste 14 Este 0 -- -- 71
2018-04-25 10:00:00 12.5 0 Calma 6 Oeste 0 -- -- 87
2018-04-25 09:00:00 12.4 0 Calma 6 Noroeste 0 -- -- 84
2018-04-25 08:00:00 12 3 Este 16 Norte 0 -- -- 86
2018-04-25 07:00:00 12.4 0 Calma 6 Norte 0 -- -- 77
2018-04-25 06:00:00 13.6 2 Sudoeste 11 Sur 0 -- -- 60
2018-04-25 05:00:00 14.2 3 Norte 12 Este 0 -- -- 59
2018-04-25 04:00:00 15 4 Este 10 Este 0 -- -- 50
2018-04-25 03:00:00 14.8 0 Calma 12 Este 0 -- -- 59
2018-04-25 02:00:00 15.5 3 Nordeste 9 Este 0 -- -- 53
2018-04-25 01:00:00 15.4 3 Nordeste 9 Nordeste 0 -- -- 60
2018-04-25 00:00:00 16.3 5 Este 10 Este 0 -- -- 56
2018-04-24 23:00:00 15.7 3 Nordeste 13 Sudeste 0 -- -- 59
2018-04-24 22:00:00 16.2 3 Nordeste 12 Norte 0 -- -- 69
2018-04-24 21:00:00 17.6 2 Norte 18 Sudoeste 0 -- -- 65
2018-04-24 20:00:00 19.6 5 Oeste 15 Sudoeste 0 -- -- 56
2018-04-24 19:00:00 21.6 5 Sudoeste 21 Nordeste 0 -- -- 46
2018-04-24 18:00:00 24.5 8 Este 28 Este 0 -- -- 32
2018-04-24 17:00:00 26.4 11 Este 36 Este 0 -- -- 29
2018-04-24 16:00:00 26.1 15 Este 34 Este 0 -- -- 30
2018-04-24 15:00:00 25.1 16 Este 36 Este 0 -- -- 31
2018-04-24 14:00:00 24.1 14 Este 28 Sudeste 0 -- -- 30
2018-04-24 13:00:00 23.6 12 Este 28 Sudeste 0 -- -- 29
2018-04-24 12:00:00 21.5 11 Este 36 Este 0 -- -- 33
2018-04-24 11:00:00 19.9 15 Este 40 Sudeste 0 -- -- 32
2018-04-24 10:00:00 18.7 20 Este 47 Este 0 -- -- 32
2018-04-24 09:00:00 17.2 9 Sudeste 27 Sudeste 0 -- -- 37
2018-04-24 08:00:00 15.2 6 Sudeste 19 Este 0 -- -- 39
2018-04-24 07:00:00 15.1 7 Sudoeste 17 Sudoeste 0 -- -- 38
2018-04-24 06:00:00 15.9 4 Sudoeste 15 Norte 0 -- -- 44
2018-04-24 05:00:00 17.4 4 Nordeste 14 Norte 0 -- -- 45
2018-04-24 04:00:00 18.8 3 Nordeste 40 Este 0 -- -- 42
2018-04-24 03:00:00 19.2 22 Este 57 Este 0 -- -- 40
2018-04-24 02:00:00 19.7 23 Este 55 Este 0 -- -- 39
2018-04-24 01:00:00 19.4 8 Sudeste 48 Este 0 -- -- 41
2018-04-24 00:00:00 19.9 21 Este 51 Sudeste 0 -- -- 38